sensor_id;sensor_type;location;lat;lon;timestamp;pressure;altitude;pressure_sealevel;temperature
15575;BMP180;7888;46.748;8.102;2023-07-30T00:02:20;94059.00;;;22.60
15575;BMP180;7888;46.748;8.102;2023-07-30T00:04:46;94052.00;;;22.60
15575;BMP180;7888;46.748;8.102;2023-07-30T00:07:13;94047.00;;;22.70
15575;BMP180;7888;46.748;8.102;2023-07-30T00:09:39;94053.00;;;22.70
15575;BMP180;7888;46.748;8.102;2023-07-30T00:12:07;94058.00;;;22.70
15575;BMP180;7888;46.748;8.102;2023-07-30T00:14:33;94070.00;;;22.70
15575;BMP180;7888;46.748;8.102;2023-07-30T00:16:59;94057.00;;;22.70
15575;BMP180;7888;46.748;8.102;2023-07-30T00:19:25;94045.00;;;22.70
15575;BMP180;7888;46.748;8.102;2023-07-30T00:21:51;94055.00;;;22.70
15575;BMP180;7888;46.748;8.102;2023-07-30T00:24:16;94039.00;;;22.70
15575;BMP180;7888;46.748;8.102;2023-07-30T00:26:42;94055.00;;;22.60
15575;BMP180;7888;46.748;8.102;2023-07-30T00:29:08;94061.00;;;22.70
15575;BMP180;7888;46.748;8.102;2023-07-30T00:31:34;94077.00;;;22.70
15575;BMP180;7888;46.748;8.102;2023-07-30T00:33:59;94070.00;;;22.70
15575;BMP180;7888;46.748;8.102;2023-07-30T00:36:25;94078.00;;;22.70
15575;BMP180;7888;46.748;8.102;2023-07-30T00:38:51;94073.00;;;22.70
15575;BMP180;7888;46.748;8.102;2023-07-30T00:41:16;94073.00;;;22.70
15575;BMP180;7888;46.748;8.102;2023-07-30T00:43:42;94067.00;;;22.70
15575;BMP180;7888;46.748;8.102;2023-07-30T00:46:08;94068.00;;;22.70
15575;BMP180;7888;46.748;8.102;2023-07-30T00:48:34;94072.00;;;22.70
15575;BMP180;7888;46.748;8.102;2023-07-30T00:51:00;94080.00;;;22.70
15575;BMP180;7888;46.748;8.102;2023-07-30T00:53:27;94070.00;;;22.70
15575;BMP180;7888;46.748;8.102;2023-07-30T00:55:54;94043.00;;;22.70
15575;BMP180;7888;46.748;8.102;2023-07-30T00:58:21;94061.00;;;22.70
15575;BMP180;7888;46.748;8.102;2023-07-30T01:00:47;94055.00;;;22.80
15575;BMP180;7888;46.748;8.102;2023-07-30T01:03:13;94058.00;;;22.70
15575;BMP180;7888;46.748;8.102;2023-07-30T01:05:39;94061.00;;;22.80
15575;BMP180;7888;46.748;8.102;2023-07-30T01:08:05;94067.00;;;22.70
15575;BMP180;7888;46.748;8.102;2023-07-30T01:10:32;94063.00;;;22.70
15575;BMP180;7888;46.748;8.102;2023-07-30T01:13:03;94066.00;;;22.70
15575;BMP180;7888;46.748;8.102;2023-07-30T01:15:31;94060.00;;;22.60
15575;BMP180;7888;46.748;8.102;2023-07-30T01:17:58;94065.00;;;22.60
15575;BMP180;7888;46.748;8.102;2023-07-30T01:20:23;94047.00;;;22.60
15575;BMP180;7888;46.748;8.102;2023-07-30T01:22:49;94070.00;;;22.60
15575;BMP180;7888;46.748;8.102;2023-07-30T01:25:15;94073.00;;;22.60
15575;BMP180;7888;46.748;8.102;2023-07-30T01:27:49;94068.00;;;22.60
15575;BMP180;7888;46.748;8.102;2023-07-30T01:30:22;94068.00;;;22.60
15575;BMP180;7888;46.748;8.102;2023-07-30T01:32:50;94039.00;;;22.60
15575;BMP180;7888;46.748;8.102;2023-07-30T01:35:20;94070.00;;;22.60
15575;BMP180;7888;46.748;8.102;2023-07-30T01:37:49;94077.00;;;22.60
15575;BMP180;7888;46.748;8.102;2023-07-30T01:40:15;94062.00;;;22.60
15575;BMP180;7888;46.748;8.102;2023-07-30T01:42:42;94061.00;;;22.60
15575;BMP180;7888;46.748;8.102;2023-07-30T01:45:08;94063.00;;;22.60
15575;BMP180;7888;46.748;8.102;2023-07-30T01:47:33;94053.00;;;22.50
15575;BMP180;7888;46.748;8.102;2023-07-30T01:49:59;94041.00;;;22.50
15575;BMP180;7888;46.748;8.102;2023-07-30T01:52:26;94058.00;;;22.50
15575;BMP180;7888;46.748;8.102;2023-07-30T01:54:51;94057.00;;;22.50
15575;BMP180;7888;46.748;8.102;2023-07-30T01:57:18;94035.00;;;22.50
15575;BMP180;7888;46.748;8.102;2023-07-30T01:59:44;94052.00;;;22.50
15575;BMP180;7888;46.748;8.102;2023-07-30T02:02:09;94049.00;;;22.50
15575;BMP180;7888;46.748;8.102;2023-07-30T02:04:35;94055.00;;;22.50
15575;BMP180;7888;46.748;8.102;2023-07-30T02:07:01;94055.00;;;22.40
15575;BMP180;7888;46.748;8.102;2023-07-30T02:09:26;94051.00;;;22.50
15575;BMP180;7888;46.748;8.102;2023-07-30T02:11:52;94044.00;;;22.40
15575;BMP180;7888;46.748;8.102;2023-07-30T02:14:18;94050.00;;;22.40
15575;BMP180;7888;46.748;8.102;2023-07-30T02:16:44;94047.00;;;22.40
15575;BMP180;7888;46.748;8.102;2023-07-30T02:19:10;94051.00;;;22.40
15575;BMP180;7888;46.748;8.102;2023-07-30T02:21:36;94039.00;;;22.40
15575;BMP180;7888;46.748;8.102;2023-07-30T02:24:04;94038.00;;;22.40
15575;BMP180;7888;46.748;8.102;2023-07-30T02:26:35;94044.00;;;22.40
15575;BMP180;7888;46.748;8.102;2023-07-30T02:29:01;94035.00;;;22.40
15575;BMP180;7888;46.748;8.102;2023-07-30T02:31:27;94030.00;;;22.40
15575;BMP180;7888;46.748;8.102;2023-07-30T02:33:52;94035.00;;;22.40
15575;BMP180;7888;46.748;8.102;2023-07-30T02:36:18;94045.00;;;22.40
15575;BMP180;7888;46.748;8.102;2023-07-30T02:38:44;94050.00;;;22.40
15575;BMP180;7888;46.748;8.102;2023-07-30T02:41:09;94039.00;;;22.40
15575;BMP180;7888;46.748;8.102;2023-07-30T02:43:35;94046.00;;;22.40
15575;BMP180;7888;46.748;8.102;2023-07-30T02:46:01;94060.00;;;22.40
15575;BMP180;7888;46.748;8.102;2023-07-30T02:48:26;94054.00;;;22.40
15575;BMP180;7888;46.748;8.102;2023-07-30T02:50:52;94073.00;;;22.40
15575;BMP180;7888;46.748;8.102;2023-07-30T02:53:18;94073.00;;;22.50
15575;BMP180;7888;46.748;8.102;2023-07-30T02:55:44;94075.00;;;22.50
15575;BMP180;7888;46.748;8.102;2023-07-30T02:58:09;94078.00;;;22.50
15575;BMP180;7888;46.748;8.102;2023-07-30T03:00:35;94065.00;;;22.50
15575;BMP180;7888;46.748;8.102;2023-07-30T03:03:01;94064.00;;;22.40
15575;BMP180;7888;46.748;8.102;2023-07-30T03:05:27;94051.00;;;22.40
15575;BMP180;7888;46.748;8.102;2023-07-30T03:07:53;94055.00;;;22.40
15575;BMP180;7888;46.748;8.102;2023-07-30T03:10:18;94058.00;;;22.50
15575;BMP180;7888;46.748;8.102;2023-07-30T03:12:44;94053.00;;;22.50
15575;BMP180;7888;46.748;8.102;2023-07-30T03:15:10;94071.00;;;22.50
15575;BMP180;7888;46.748;8.102;2023-07-30T03:17:36;94066.00;;;22.50
15575;BMP180;7888;46.748;8.102;2023-07-30T03:20:02;94060.00;;;22.50
15575;BMP180;7888;46.748;8.102;2023-07-30T03:22:29;94056.00;;;22.50
15575;BMP180;7888;46.748;8.102;2023-07-30T03:24:55;94050.00;;;22.50
15575;BMP180;7888;46.748;8.102;2023-07-30T03:27:21;94066.00;;;22.50
15575;BMP180;7888;46.748;8.102;2023-07-30T03:29:47;94064.00;;;22.50
15575;BMP180;7888;46.748;8.102;2023-07-30T03:32:13;94064.00;;;22.50
15575;BMP180;7888;46.748;8.102;2023-07-30T03:34:38;94078.00;;;22.50
15575;BMP180;7888;46.748;8.102;2023-07-30T03:37:04;94070.00;;;22.50
15575;BMP180;7888;46.748;8.102;2023-07-30T03:39:30;94073.00;;;22.50
15575;BMP180;7888;46.748;8.102;2023-07-30T03:41:56;94071.00;;;22.50
15575;BMP180;7888;46.748;8.102;2023-07-30T03:44:22;94072.00;;;22.50
15575;BMP180;7888;46.748;8.102;2023-07-30T03:46:48;94079.00;;;22.50
15575;BMP180;7888;46.748;8.102;2023-07-30T03:49:14;94073.00;;;22.50
15575;BMP180;7888;46.748;8.102;2023-07-30T03:51:40;94049.00;;;22.50
15575;BMP180;7888;46.748;8.102;2023-07-30T03:54:05;94063.00;;;22.50
15575;BMP180;7888;46.748;8.102;2023-07-30T03:56:31;94065.00;;;22.40
15575;BMP180;7888;46.748;8.102;2023-07-30T03:58:57;94062.00;;;22.40
15575;BMP180;7888;46.748;8.102;2023-07-30T04:01:23;94071.00;;;22.40
15575;BMP180;7888;46.748;8.102;2023-07-30T04:03:48;94074.00;;;22.40
15575;BMP180;7888;46.748;8.102;2023-07-30T04:06:14;94091.00;;;22.40
15575;BMP180;7888;46.748;8.102;2023-07-30T04:08:40;94090.00;;;22.40
15575;BMP180;7888;46.748;8.102;2023-07-30T04:11:05;94094.00;;;22.40
15575;BMP180;7888;46.748;8.102;2023-07-30T04:13:31;94106.00;;;22.40
15575;BMP180;7888;46.748;8.102;2023-07-30T04:15:57;94098.00;;;22.40
15575;BMP180;7888;46.748;8.102;2023-07-30T04:18:23;94093.00;;;22.40
15575;BMP180;7888;46.748;8.102;2023-07-30T04:20:48;94095.00;;;22.30
15575;BMP180;7888;46.748;8.102;2023-07-30T04:23:14;94086.00;;;22.40
15575;BMP180;7888;46.748;8.102;2023-07-30T04:25:40;94086.00;;;22.40
15575;BMP180;7888;46.748;8.102;2023-07-30T04:28:06;94095.00;;;22.40
15575;BMP180;7888;46.748;8.102;2023-07-30T04:30:32;94094.00;;;22.50
15575;BMP180;7888;46.748;8.102;2023-07-30T04:32:58;94102.00;;;22.50
15575;BMP180;7888;46.748;8.102;2023-07-30T04:35:24;94101.00;;;22.50
15575;BMP180;7888;46.748;8.102;2023-07-30T04:37:50;94097.00;;;22.40
15575;BMP180;7888;46.748;8.102;2023-07-30T04:40:15;94095.00;;;22.40
15575;BMP180;7888;46.748;8.102;2023-07-30T04:42:41;94088.00;;;22.30
15575;BMP180;7888;46.748;8.102;2023-07-30T04:45:07;94087.00;;;22.30
15575;BMP180;7888;46.748;8.102;2023-07-30T04:47:33;94087.00;;;22.30
15575;BMP180;7888;46.748;8.102;2023-07-30T04:49:59;94086.00;;;22.20
15575;BMP180;7888;46.748;8.102;2023-07-30T04:52:24;94090.00;;;22.20
15575;BMP180;7888;46.748;8.102;2023-07-30T04:54:50;94088.00;;;22.20
15575;BMP180;7888;46.748;8.102;2023-07-30T04:57:16;94094.00;;;22.20
15575;BMP180;7888;46.748;8.102;2023-07-30T04:59:41;94095.00;;;22.20
15575;BMP180;7888;46.748;8.102;2023-07-30T05:02:07;94090.00;;;22.10
15575;BMP180;7888;46.748;8.102;2023-07-30T05:04:33;94090.00;;;22.00
15575;BMP180;7888;46.748;8.102;2023-07-30T05:06:59;94098.00;;;21.90
15575;BMP180;7888;46.748;8.102;2023-07-30T05:09:24;94101.00;;;21.90
15575;BMP180;7888;46.748;8.102;2023-07-30T05:11:50;94108.00;;;21.90
15575;BMP180;7888;46.748;8.102;2023-07-30T05:14:16;94116.00;;;21.90
15575;BMP180;7888;46.748;8.102;2023-07-30T05:16:42;94121.00;;;22.00
15575;BMP180;7888;46.748;8.102;2023-07-30T05:19:07;94124.00;;;22.10
15575;BMP180;7888;46.748;8.102;2023-07-30T05:21:34;94119.00;;;22.10
15575;BMP180;7888;46.748;8.102;2023-07-30T05:24:00;94107.00;;;22.10
15575;BMP180;7888;46.748;8.102;2023-07-30T05:26:26;94124.00;;;22.10
15575;BMP180;7888;46.748;8.102;2023-07-30T05:28:51;94117.00;;;22.10
15575;BMP180;7888;46.748;8.102;2023-07-30T05:31:17;94135.00;;;22.20
15575;BMP180;7888;46.748;8.102;2023-07-30T05:33:43;94126.00;;;22.20
15575;BMP180;7888;46.748;8.102;2023-07-30T05:36:08;94123.00;;;22.20
15575;BMP180;7888;46.748;8.102;2023-07-30T05:38:34;94127.00;;;22.20
15575;BMP180;7888;46.748;8.102;2023-07-30T05:41:00;94136.00;;;22.20
15575;BMP180;7888;46.748;8.102;2023-07-30T05:43:25;94145.00;;;22.30
15575;BMP180;7888;46.748;8.102;2023-07-30T05:45:51;94137.00;;;22.30
15575;BMP180;7888;46.748;8.102;2023-07-30T05:48:17;94145.00;;;22.30
15575;BMP180;7888;46.748;8.102;2023-07-30T05:50:43;94146.00;;;22.40
15575;BMP180;7888;46.748;8.102;2023-07-30T05:53:08;94143.00;;;22.40
15575;BMP180;7888;46.748;8.102;2023-07-30T05:55:34;94153.00;;;22.50
15575;BMP180;7888;46.748;8.102;2023-07-30T05:58:00;94142.00;;;22.50
15575;BMP180;7888;46.748;8.102;2023-07-30T06:00:26;94130.00;;;22.60
15575;BMP180;7888;46.748;8.102;2023-07-30T06:02:52;94136.00;;;22.60
15575;BMP180;7888;46.748;8.102;2023-07-30T06:05:17;94133.00;;;22.60
15575;BMP180;7888;46.748;8.102;2023-07-30T06:07:43;94136.00;;;22.70
15575;BMP180;7888;46.748;8.102;2023-07-30T06:10:09;94149.00;;;22.70
15575;BMP180;7888;46.748;8.102;2023-07-30T06:12:35;94149.00;;;22.70
15575;BMP180;7888;46.748;8.102;2023-07-30T06:15:01;94152.00;;;22.70
15575;BMP180;7888;46.748;8.102;2023-07-30T06:17:26;94149.00;;;22.70
15575;BMP180;7888;46.748;8.102;2023-07-30T06:19:52;94154.00;;;22.70
15575;BMP180;7888;46.748;8.102;2023-07-30T06:22:18;94146.00;;;22.70
15575;BMP180;7888;46.748;8.102;2023-07-30T06:24:44;94162.00;;;22.70
15575;BMP180;7888;46.748;8.102;2023-07-30T06:27:09;94153.00;;;22.70
15575;BMP180;7888;46.748;8.102;2023-07-30T06:29:36;94153.00;;;22.80
15575;BMP180;7888;46.748;8.102;2023-07-30T06:32:02;94137.00;;;22.80
15575;BMP180;7888;46.748;8.102;2023-07-30T06:34:27;94159.00;;;22.90
15575;BMP180;7888;46.748;8.102;2023-07-30T06:36:54;94150.00;;;23.00
15575;BMP180;7888;46.748;8.102;2023-07-30T06:39:19;94150.00;;;23.10
15575;BMP180;7888;46.748;8.102;2023-07-30T06:41:46;94145.00;;;23.20
15575;BMP180;7888;46.748;8.102;2023-07-30T06:44:11;94146.00;;;23.30
15575;BMP180;7888;46.748;8.102;2023-07-30T06:46:37;94145.00;;;23.40
15575;BMP180;7888;46.748;8.102;2023-07-30T06:49:03;94152.00;;;23.40
15575;BMP180;7888;46.748;8.102;2023-07-30T06:51:29;94161.00;;;23.50
15575;BMP180;7888;46.748;8.102;2023-07-30T06:53:55;94154.00;;;23.50
15575;BMP180;7888;46.748;8.102;2023-07-30T06:56:21;94149.00;;;23.60
15575;BMP180;7888;46.748;8.102;2023-07-30T06:58:46;94156.00;;;23.60
15575;BMP180;7888;46.748;8.102;2023-07-30T07:01:12;94154.00;;;23.70
15575;BMP180;7888;46.748;8.102;2023-07-30T07:03:38;94151.00;;;23.70
15575;BMP180;7888;46.748;8.102;2023-07-30T07:06:04;94157.00;;;23.80
15575;BMP180;7888;46.748;8.102;2023-07-30T07:08:30;94160.00;;;23.90
15575;BMP180;7888;46.748;8.102;2023-07-30T07:10:56;94163.00;;;23.90
15575;BMP180;7888;46.748;8.102;2023-07-30T07:13:22;94160.00;;;24.00
15575;BMP180;7888;46.748;8.102;2023-07-30T07:15:47;94157.00;;;24.00
15575;BMP180;7888;46.748;8.102;2023-07-30T07:18:13;94152.00;;;24.10
15575;BMP180;7888;46.748;8.102;2023-07-30T07:20:39;94152.00;;;24.10
15575;BMP180;7888;46.748;8.102;2023-07-30T07:23:05;94130.00;;;24.20
15575;BMP180;7888;46.748;8.102;2023-07-30T07:25:30;94143.00;;;24.30
15575;BMP180;7888;46.748;8.102;2023-07-30T07:27:56;94146.00;;;24.40
15575;BMP180;7888;46.748;8.102;2023-07-30T07:30:22;94141.00;;;24.50
15575;BMP180;7888;46.748;8.102;2023-07-30T07:32:48;94135.00;;;24.50
15575;BMP180;7888;46.748;8.102;2023-07-30T07:35:18;94128.00;;;24.60
15575;BMP180;7888;46.748;8.102;2023-07-30T07:37:44;94128.00;;;24.80
15575;BMP180;7888;46.748;8.102;2023-07-30T07:40:10;94129.00;;;24.80
15575;BMP180;7888;46.748;8.102;2023-07-30T07:42:38;94119.00;;;24.90
15575;BMP180;7888;46.748;8.102;2023-07-30T07:45:06;94125.00;;;25.00
15575;BMP180;7888;46.748;8.102;2023-07-30T07:47:32;94118.00;;;25.10
15575;BMP180;7888;46.748;8.102;2023-07-30T07:49:57;94088.00;;;25.30
15575;BMP180;7888;46.748;8.102;2023-07-30T07:52:23;94128.00;;;25.40
15575;BMP180;7888;46.748;8.102;2023-07-30T07:54:49;94147.00;;;25.50
15575;BMP180;7888;46.748;8.102;2023-07-30T07:57:15;94146.00;;;25.70
15575;BMP180;7888;46.748;8.102;2023-07-30T07:59:40;94143.00;;;25.70
15575;BMP180;7888;46.748;8.102;2023-07-30T08:02:13;94154.00;;;25.80
15575;BMP180;7888;46.748;8.102;2023-07-30T08:04:39;94165.00;;;25.80
15575;BMP180;7888;46.748;8.102;2023-07-30T08:07:05;94164.00;;;25.90
15575;BMP180;7888;46.748;8.102;2023-07-30T08:09:31;94166.00;;;25.90
15575;BMP180;7888;46.748;8.102;2023-07-30T08:11:57;94168.00;;;25.90
15575;BMP180;7888;46.748;8.102;2023-07-30T08:14:24;94163.00;;;25.90
15575;BMP180;7888;46.748;8.102;2023-07-30T08:16:49;94173.00;;;25.90
15575;BMP180;7888;46.748;8.102;2023-07-30T08:19:15;94159.00;;;26.00
15575;BMP180;7888;46.748;8.102;2023-07-30T08:21:41;94157.00;;;26.00
15575;BMP180;7888;46.748;8.102;2023-07-30T08:24:07;94156.00;;;26.00
15575;BMP180;7888;46.748;8.102;2023-07-30T08:26:32;94159.00;;;26.00
15575;BMP180;7888;46.748;8.102;2023-07-30T08:28:58;94177.00;;;25.90
15575;BMP180;7888;46.748;8.102;2023-07-30T08:31:24;94182.00;;;25.80
15575;BMP180;7888;46.748;8.102;2023-07-30T08:33:50;94176.00;;;25.70
15575;BMP180;7888;46.748;8.102;2023-07-30T08:36:15;94179.00;;;25.70
15575;BMP180;7888;46.748;8.102;2023-07-30T08:38:41;94158.00;;;25.60
15575;BMP180;7888;46.748;8.102;2023-07-30T08:41:08;94168.00;;;25.60
15575;BMP180;7888;46.748;8.102;2023-07-30T08:43:34;94178.00;;;25.60
15575;BMP180;7888;46.748;8.102;2023-07-30T08:46:01;94183.00;;;25.60
15575;BMP180;7888;46.748;8.102;2023-07-30T08:48:27;94169.00;;;25.60
15575;BMP180;7888;46.748;8.102;2023-07-30T08:50:57;94173.00;;;25.50
